createdAt,value
2024-03-05T00:01:06.526Z,99588.44
2024-03-05T00:04:09.369Z,99581.09
2024-03-05T00:07:11.717Z,99585.44
2024-03-05T00:10:14.805Z,99582.28
2024-03-05T00:13:18.793Z,99586.19
2024-03-05T00:16:21.837Z,99585.06
2024-03-05T00:19:26.991Z,99585.25
2024-03-05T00:22:29.752Z,99588.34
2024-03-05T00:25:32.747Z,99598.38
2024-03-05T00:28:35.866Z,99595.31
2024-03-05T00:31:41.235Z,99589.72
2024-03-05T00:34:44.051Z,99589.37
2024-03-05T00:37:46.438Z,99590.81
2024-03-05T00:40:49.811Z,99593.12
2024-03-05T00:43:53.347Z,99587.81
2024-03-05T00:46:56.289Z,99592.00
2024-03-05T00:50:00.385Z,99595.38
2024-03-05T00:53:03.170Z,99594.88
2024-03-05T00:56:07.488Z,99588.91
2024-03-05T00:59:10.238Z,99590.41
2024-03-05T01:02:12.726Z,99594.78
2024-03-05T01:05:15.607Z,99592.28
2024-03-05T01:08:17.970Z,99592.78
2024-03-05T01:11:20.834Z,99592.59
2024-03-05T01:14:23.652Z,99591.94
2024-03-05T01:17:28.775Z,99588.38
2024-03-05T01:20:31.250Z,99586.59
2024-03-05T01:23:34.538Z,99584.69
2024-03-05T01:26:38.933Z,99584.81
2024-03-05T01:29:42.996Z,99583.94
2024-03-05T01:32:45.810Z,99585.38
2024-03-05T01:35:49.606Z,99577.19
2024-03-05T01:38:53.096Z,99593.00
2024-03-05T01:41:57.303Z,99591.16
2024-03-05T01:45:00.102Z,99593.38
2024-03-05T01:48:03.038Z,99597.44
2024-03-05T01:51:06.500Z,99598.19
2024-03-05T01:54:09.378Z,99587.00
2024-03-05T01:57:12.076Z,99594.06
2024-03-05T02:00:21.916Z,99593.16
2024-03-05T02:03:24.868Z,99587.88
2024-03-05T02:06:28.349Z,99589.53
2024-03-05T02:09:37.496Z,99595.22
2024-03-05T02:12:42.257Z,99592.28
2024-03-05T02:15:45.167Z,99579.78
2024-03-05T02:18:47.856Z,99573.66
2024-03-05T02:22:04.634Z,99586.75
2024-03-05T02:25:07.672Z,99583.50
2024-03-05T02:28:11.819Z,99594.91
2024-03-05T02:31:14.692Z,99601.44
2024-03-05T02:34:17.650Z,99593.41
2024-03-05T02:37:20.417Z,99600.81
2024-03-05T02:40:23.347Z,99601.47
2024-03-05T02:43:25.776Z,99608.34
2024-03-05T02:46:28.517Z,99605.50
2024-03-05T02:49:30.926Z,99613.47
2024-03-05T02:52:33.667Z,99614.00
2024-03-05T02:55:39.377Z,99614.06
2024-03-05T02:58:43.443Z,99615.22
2024-03-05T03:01:49.671Z,99619.50
2024-03-05T03:04:52.903Z,99616.28
2024-03-05T03:07:55.509Z,99623.41
2024-03-05T03:10:58.633Z,99619.16
2024-03-05T03:14:02.007Z,99618.97
2024-03-05T03:17:05.423Z,99620.44
2024-03-05T03:20:09.448Z,99626.31
2024-03-05T03:23:12.199Z,99621.81
2024-03-05T03:26:14.723Z,99623.50
2024-03-05T03:29:17.632Z,99626.78
2024-03-05T03:32:23.417Z,99628.66
2024-03-05T03:35:26.255Z,99626.13
2024-03-05T03:38:28.643Z,99630.69
2024-03-05T03:41:31.438Z,99635.00
2024-03-05T03:44:35.970Z,99635.06
2024-03-05T03:47:38.718Z,99639.62
2024-03-05T03:50:41.298Z,99636.13
2024-03-05T03:53:44.960Z,99636.19
2024-03-05T03:56:47.593Z,99642.53
2024-03-05T03:59:50.429Z,99641.56
2024-03-05T04:02:53.052Z,99643.81
2024-03-05T04:05:55.860Z,99642.78
2024-03-05T04:08:58.450Z,99656.81
2024-03-05T04:12:02.929Z,99645.69
2024-03-05T04:15:06.635Z,99646.88
2024-03-05T04:18:09.475Z,99649.69
2024-03-05T04:21:12.033Z,99645.50
2024-03-05T04:24:15.594Z,99654.34
2024-03-05T04:27:19.770Z,99653.13
2024-03-05T04:30:24.582Z,99650.72
2024-03-05T04:33:29.533Z,99648.41
2024-03-05T04:36:35.629Z,99652.41
2024-03-05T04:39:43.087Z,99659.09
2024-03-05T04:42:46.513Z,99653.72
2024-03-05T04:45:51.213Z,99654.53
2024-03-05T04:48:53.681Z,99650.63
2024-03-05T04:51:55.881Z,99650.91
2024-03-05T04:54:58.366Z,99652.84
2024-03-05T04:58:00.563Z,99647.47
2024-03-05T05:01:03.635Z,99647.09
2024-03-05T05:04:06.774Z,99650.75
2024-03-05T05:07:09.343Z,99652.34
2024-03-05T05:10:11.929Z,99658.94
2024-03-05T05:13:14.743Z,99657.25
2024-03-05T05:16:17.309Z,99651.56
2024-03-05T05:19:19.901Z,99658.37
2024-03-05T05:22:22.224Z,99666.47
2024-03-05T05:25:25.022Z,99665.19
2024-03-05T05:28:28.232Z,99669.16
2024-03-05T05:31:30.899Z,99671.88
2024-03-05T05:34:33.698Z,99670.63
2024-03-05T05:37:38.167Z,99671.13
2024-03-05T05:40:41.140Z,99672.97
2024-03-05T05:43:44.693Z,99671.84
2024-03-05T05:46:47.412Z,99681.50
2024-03-05T05:49:50.233Z,99679.66
2024-03-05T05:52:54.522Z,99677.56
2024-03-05T05:55:57.151Z,99681.56
2024-03-05T05:58:59.545Z,99689.34
2024-03-05T06:02:02.301Z,99688.25
2024-03-05T06:05:10.010Z,99689.81
2024-03-05T06:08:12.850Z,99692.28
2024-03-05T06:11:15.895Z,99694.88
2024-03-05T06:14:18.215Z,99685.09
2024-03-05T06:17:21.013Z,99686.38
2024-03-05T06:20:23.918Z,99692.12
2024-03-05T06:23:31.579Z,99690.66
2024-03-05T06:26:45.570Z,99694.03
2024-03-05T06:29:48.572Z,99691.25
2024-03-05T06:33:00.540Z,99693.69
2024-03-05T06:36:07.800Z,99694.81
2024-03-05T06:39:22.195Z,99708.06
2024-03-05T06:42:25.410Z,99709.44
2024-03-05T06:45:29.244Z,99709.88
2024-03-05T06:48:34.449Z,99719.44
2024-03-05T06:51:43.357Z,99714.06
2024-03-05T06:55:04.424Z,99717.50
2024-03-05T06:58:20.424Z,99725.66
2024-03-05T07:01:34.453Z,99733.22
2024-03-05T07:04:36.780Z,99732.25
2024-03-05T07:07:44.091Z,99736.66
2024-03-05T07:10:50.739Z,99737.75
2024-03-05T07:13:54.164Z,99742.69
2024-03-05T07:16:56.942Z,99741.63
2024-03-05T07:19:59.535Z,99745.81
2024-03-05T07:23:03.815Z,99752.13
2024-03-05T07:26:08.011Z,99751.72
2024-03-05T07:29:12.911Z,99746.97
2024-03-05T07:32:27.229Z,99753.41
2024-03-05T07:35:31.119Z,99751.97
2024-03-05T07:38:43.000Z,99758.16
2024-03-05T07:41:58.554Z,99762.03
2024-03-05T07:45:09.024Z,99754.81
2024-03-05T07:48:16.054Z,99768.69
2024-03-05T07:51:44.325Z,99767.28
2024-03-05T12:18:32.939Z,99767.00
2024-03-05T12:21:40.122Z,99771.25
2024-03-05T12:24:42.751Z,99767.19
2024-03-05T12:27:49.190Z,99770.63
2024-03-05T12:30:52.337Z,99757.97
2024-03-05T12:33:55.240Z,99761.59
2024-03-05T12:36:57.817Z,99764.22
2024-03-05T12:40:04.611Z,99757.09
2024-03-05T12:43:08.214Z,99760.88
2024-03-05T12:46:10.786Z,99758.16
2024-03-05T12:49:16.086Z,99766.50
2024-03-05T12:52:20.887Z,99769.34
2024-03-05T12:55:23.321Z,99766.41
2024-03-05T12:58:28.163Z,99772.69
2024-03-05T13:01:30.932Z,99767.19
2024-03-05T13:04:35.100Z,99768.00
2024-03-05T13:07:38.438Z,99771.03
2024-03-05T13:10:41.076Z,99766.41
2024-03-05T13:13:43.388Z,99754.47
2024-03-05T13:16:46.514Z,99766.88
2024-03-05T13:19:48.896Z,99769.12
2024-03-05T13:22:54.880Z,99773.00
2024-03-05T13:25:59.082Z,99758.84
2024-03-05T13:29:02.773Z,99765.28
2024-03-05T13:32:06.166Z,99774.66
2024-03-05T13:35:09.690Z,99779.97
2024-03-05T13:38:12.119Z,99767.38
2024-03-05T13:41:15.737Z,99784.41
2024-03-05T13:44:18.602Z,99785.97
2024-03-05T13:47:22.766Z,99787.25
2024-03-05T13:50:25.654Z,99790.06
2024-03-05T13:53:28.339Z,99781.63
2024-03-05T13:56:32.363Z,99786.94
2024-03-05T13:59:34.968Z,99788.41
2024-03-05T14:02:37.272Z,99781.06
2024-03-05T14:05:39.839Z,99787.59
2024-03-05T14:08:44.587Z,99787.00
2024-03-05T14:11:50.283Z,99788.97
2024-03-05T14:14:52.739Z,99792.28
2024-03-05T14:17:55.365Z,99803.56
2024-03-05T14:20:57.885Z,99796.22
2024-03-05T14:24:00.693Z,99796.84
2024-03-05T14:27:03.054Z,99795.91
2024-03-05T14:30:08.893Z,99796.78
2024-03-05T14:33:11.994Z,99799.00
2024-03-05T14:36:15.422Z,99808.34
2024-03-05T14:39:18.127Z,99802.50
2024-03-05T14:42:20.937Z,99798.62
2024-03-05T14:45:23.762Z,99802.13
2024-03-05T14:48:26.458Z,99803.91
2024-03-05T14:51:30.005Z,99802.97
2024-03-05T14:54:32.639Z,99805.34
2024-03-05T14:57:35.078Z,99804.50
2024-03-05T15:00:38.008Z,99803.66
2024-03-05T15:03:40.641Z,99802.00
2024-03-05T15:06:43.126Z,99806.47
2024-03-05T15:09:45.387Z,99816.19
2024-03-05T15:12:50.250Z,99818.72
2024-03-05T15:15:52.413Z,99820.69
2024-03-05T15:18:54.883Z,99822.03
2024-03-05T15:21:59.904Z,99823.03
2024-03-05T15:25:08.323Z,99835.09
2024-03-05T15:28:10.616Z,99831.75
2024-03-05T15:31:13.195Z,99828.13
2024-03-05T15:34:15.816Z,99836.34
2024-03-05T15:37:18.410Z,99838.69
2024-03-05T15:40:30.076Z,99850.06
2024-03-05T15:43:37.404Z,99856.72
2024-03-05T15:46:41.421Z,99855.97
2024-03-05T15:49:44.718Z,99856.22
2024-03-05T15:52:55.263Z,99853.56
2024-03-05T15:56:13.638Z,99860.03
2024-03-05T15:59:34.987Z,99866.44
2024-03-05T16:02:37.899Z,99861.00
2024-03-05T16:05:52.090Z,99866.75
2024-03-05T16:09:04.525Z,99878.50
2024-03-05T16:12:12.262Z,99888.53
2024-03-05T16:15:16.830Z,99894.56
2024-03-05T16:18:20.372Z,99893.84
2024-03-05T16:21:25.279Z,99900.25
2024-03-05T16:24:29.360Z,99906.94
2024-03-05T16:27:32.066Z,99910.69
2024-03-05T16:30:35.582Z,99909.00
2024-03-05T16:33:38.061Z,99902.09
2024-03-05T16:36:41.242Z,99904.84
2024-03-05T16:39:44.758Z,99908.84
2024-03-05T16:42:49.675Z,99919.13
2024-03-05T16:45:53.571Z,99917.59
2024-03-05T16:48:56.516Z,99923.34
2024-03-05T16:51:59.419Z,99928.41
2024-03-05T16:55:02.645Z,99934.47
2024-03-05T16:58:11.419Z,99942.59
2024-03-05T17:01:18.661Z,99943.22
2024-03-05T17:04:24.974Z,99947.84
2024-03-05T17:07:28.833Z,99955.72
2024-03-05T17:10:32.091Z,99957.38
2024-03-05T17:13:38.307Z,99959.06
2024-03-05T17:16:46.128Z,99960.25
2024-03-05T17:19:49.800Z,99966.53
2024-03-05T17:22:56.553Z,99963.09
2024-03-05T17:26:02.539Z,99963.09
2024-03-05T17:29:08.549Z,99962.59
2024-03-05T17:32:11.933Z,99972.72
2024-03-05T17:35:15.890Z,99967.69
2024-03-05T17:38:20.005Z,99964.81
2024-03-05T17:41:23.544Z,99963.81
2024-03-05T17:44:26.842Z,99974.16
2024-03-05T17:47:31.018Z,99969.53
2024-03-05T17:50:36.398Z,99973.62
2024-03-05T17:53:39.614Z,99962.84
2024-03-05T17:56:44.773Z,99972.72
2024-03-05T17:59:48.115Z,99978.06
2024-03-05T18:02:53.494Z,99982.19
2024-03-05T18:05:56.614Z,99973.09
2024-03-05T18:08:59.833Z,99980.88
2024-03-05T18:12:05.661Z,99981.72
2024-03-05T18:15:09.153Z,99984.06
2024-03-05T18:18:16.239Z,99976.00
2024-03-05T18:21:20.043Z,99982.69
2024-03-05T18:24:23.096Z,99977.03
2024-03-05T18:27:27.225Z,99986.69
2024-03-05T18:30:32.672Z,99988.19
2024-03-05T18:33:35.641Z,99985.63
2024-03-05T18:36:41.259Z,99995.84
2024-03-05T18:39:43.989Z,99996.16
2024-03-05T18:42:51.097Z,99995.31
2024-03-05T18:45:54.980Z,99993.63
2024-03-05T18:48:58.862Z,99988.41
2024-03-05T18:52:04.674Z,99996.78
2024-03-05T18:55:10.681Z,99997.50
2024-03-05T18:58:13.470Z,99999.81
2024-03-05T19:01:16.997Z,100012.72
2024-03-05T19:04:23.873Z,100012.50
2024-03-05T19:07:30.053Z,100015.22
2024-03-05T19:10:34.765Z,100008.19
2024-03-05T19:13:38.197Z,100021.81
2024-03-05T19:16:41.378Z,100014.56
2024-03-05T19:19:48.639Z,100012.78
2024-03-05T19:22:53.199Z,100010.78
2024-03-05T19:25:57.614Z,100012.25
2024-03-05T19:29:01.073Z,100010.09
2024-03-05T19:32:06.467Z,100014.25
2024-03-05T19:35:15.333Z,100016.66
2024-03-05T19:38:18.597Z,100016.66
2024-03-05T19:41:21.291Z,100014.78
2024-03-05T19:44:24.728Z,100012.91
2024-03-05T19:47:29.263Z,100011.84
2024-03-05T19:50:34.392Z,100012.28
2024-03-05T19:53:37.260Z,100019.09
2024-03-05T19:56:42.990Z,100020.16
2024-03-05T19:59:45.999Z,100015.41
2024-03-05T20:02:49.347Z,100011.62
2024-03-05T20:05:52.758Z,100018.56
2024-03-05T20:08:55.829Z,100019.19
2024-03-05T20:11:59.523Z,100019.63
2024-03-05T20:15:09.888Z,100017.13
2024-03-05T20:18:14.357Z,100012.81
2024-03-05T20:21:17.243Z,100011.75
2024-03-05T20:24:20.329Z,100016.25
2024-03-05T20:27:23.316Z,100009.69
2024-03-05T20:30:29.735Z,100013.84
2024-03-05T20:33:38.989Z,100017.13
2024-03-05T20:36:44.586Z,100020.66
2024-03-05T20:39:53.290Z,100015.94
2024-03-05T20:42:56.981Z,100016.22
